sensor_id;sensor_type;location;lat;lon;timestamp;P1;durP1;ratioP1;P2;durP2;ratioP2
64598;SDS011;51008;51.504;11.548;2024-03-08T00:03:43;51.08;;;23.38;;
64598;SDS011;51008;51.504;11.548;2024-03-08T00:08:44;48.20;;;24.35;;
64598;SDS011;51008;51.504;11.548;2024-03-08T00:13:45;51.13;;;24.27;;
64598;SDS011;51008;51.504;11.548;2024-03-08T00:18:46;51.80;;;24.27;;
64598;SDS011;51008;51.504;11.548;2024-03-08T00:23:47;48.65;;;24.13;;
64598;SDS011;51008;51.504;11.548;2024-03-08T00:28:48;50.38;;;23.48;;
64598;SDS011;51008;51.504;11.548;2024-03-08T00:33:49;46.55;;;23.08;;
64598;SDS011;51008;51.504;11.548;2024-03-08T00:38:50;49.95;;;23.80;;
64598;SDS011;51008;51.504;11.548;2024-03-08T00:43:51;40.45;;;21.35;;
64598;SDS011;51008;51.504;11.548;2024-03-08T00:48:52;49.78;;;24.08;;
64598;SDS011;51008;51.504;11.548;2024-03-08T00:53:53;48.30;;;22.85;;
64598;SDS011;51008;51.504;11.548;2024-03-08T00:58:54;47.60;;;21.50;;
64598;SDS011;51008;51.504;11.548;2024-03-08T01:03:55;46.83;;;22.05;;
64598;SDS011;51008;51.504;11.548;2024-03-08T01:08:56;51.78;;;22.80;;
64598;SDS011;51008;51.504;11.548;2024-03-08T01:13:57;52.25;;;22.38;;
64598;SDS011;51008;51.504;11.548;2024-03-08T01:18:59;45.90;;;21.52;;
64598;SDS011;51008;51.504;11.548;2024-03-08T01:24:00;50.88;;;23.48;;
64598;SDS011;51008;51.504;11.548;2024-03-08T01:29:02;45.22;;;21.63;;
64598;SDS011;51008;51.504;11.548;2024-03-08T01:34:03;49.17;;;23.02;;
64598;SDS011;51008;51.504;11.548;2024-03-08T01:39:04;44.55;;;22.05;;
64598;SDS011;51008;51.504;11.548;2024-03-08T01:44:05;50.55;;;22.05;;
64598;SDS011;51008;51.504;11.548;2024-03-08T01:49:07;44.42;;;21.35;;
64598;SDS011;51008;51.504;11.548;2024-03-08T01:54:08;44.92;;;21.90;;
64598;SDS011;51008;51.504;11.548;2024-03-08T01:59:09;40.83;;;21.83;;
64598;SDS011;51008;51.504;11.548;2024-03-08T02:04:10;50.22;;;23.65;;
64598;SDS011;51008;51.504;11.548;2024-03-08T02:09:11;50.53;;;24.30;;
64598;SDS011;51008;51.504;11.548;2024-03-08T02:14:12;57.15;;;23.80;;
64598;SDS011;51008;51.504;11.548;2024-03-08T02:19:13;48.95;;;21.77;;
64598;SDS011;51008;51.504;11.548;2024-03-08T02:24:14;44.10;;;21.30;;
64598;SDS011;51008;51.504;11.548;2024-03-08T02:29:15;49.55;;;23.38;;
64598;SDS011;51008;51.504;11.548;2024-03-08T02:34:17;48.33;;;23.17;;
64598;SDS011;51008;51.504;11.548;2024-03-08T02:39:18;51.40;;;23.90;;
64598;SDS011;51008;51.504;11.548;2024-03-08T02:44:19;46.88;;;23.17;;
64598;SDS011;51008;51.504;11.548;2024-03-08T02:49:20;45.95;;;20.58;;
64598;SDS011;51008;51.504;11.548;2024-03-08T02:54:21;50.58;;;23.63;;
64598;SDS011;51008;51.504;11.548;2024-03-08T02:59:22;44.45;;;21.10;;
64598;SDS011;51008;51.504;11.548;2024-03-08T03:04:23;49.00;;;22.92;;
64598;SDS011;51008;51.504;11.548;2024-03-08T03:09:24;51.95;;;23.30;;
64598;SDS011;51008;51.504;11.548;2024-03-08T03:14:25;43.70;;;21.48;;
64598;SDS011;51008;51.504;11.548;2024-03-08T03:19:26;51.00;;;23.15;;
64598;SDS011;51008;51.504;11.548;2024-03-08T03:24:27;44.72;;;21.80;;
64598;SDS011;51008;51.504;11.548;2024-03-08T03:29:28;45.35;;;20.90;;
64598;SDS011;51008;51.504;11.548;2024-03-08T03:34:29;48.78;;;21.58;;
64598;SDS011;51008;51.504;11.548;2024-03-08T03:39:33;53.10;;;23.13;;
64598;SDS011;51008;51.504;11.548;2024-03-08T03:44:34;48.00;;;21.83;;
64598;SDS011;51008;51.504;11.548;2024-03-08T03:49:35;50.00;;;22.67;;
64598;SDS011;51008;51.504;11.548;2024-03-08T03:54:36;45.97;;;23.60;;
64598;SDS011;51008;51.504;11.548;2024-03-08T03:59:37;54.28;;;24.00;;
64598;SDS011;51008;51.504;11.548;2024-03-08T04:04:38;48.63;;;22.55;;
64598;SDS011;51008;51.504;11.548;2024-03-08T04:09:38;47.10;;;22.80;;
64598;SDS011;51008;51.504;11.548;2024-03-08T04:14:41;49.95;;;22.73;;
64598;SDS011;51008;51.504;11.548;2024-03-08T04:19:42;47.63;;;22.02;;
64598;SDS011;51008;51.504;11.548;2024-03-08T04:24:44;48.85;;;21.80;;
64598;SDS011;51008;51.504;11.548;2024-03-08T04:29:45;46.33;;;21.95;;
64598;SDS011;51008;51.504;11.548;2024-03-08T04:34:46;51.78;;;24.38;;
64598;SDS011;51008;51.504;11.548;2024-03-08T04:39:47;54.92;;;23.63;;
64598;SDS011;51008;51.504;11.548;2024-03-08T04:44:49;51.45;;;23.88;;
64598;SDS011;51008;51.504;11.548;2024-03-08T04:49:50;51.05;;;22.85;;
64598;SDS011;51008;51.504;11.548;2024-03-08T04:54:51;50.53;;;22.33;;
64598;SDS011;51008;51.504;11.548;2024-03-08T04:59:52;52.38;;;22.70;;
64598;SDS011;51008;51.504;11.548;2024-03-08T05:04:53;54.97;;;23.95;;
64598;SDS011;51008;51.504;11.548;2024-03-08T05:09:54;47.53;;;22.08;;
64598;SDS011;51008;51.504;11.548;2024-03-08T05:14:55;50.20;;;23.30;;
64598;SDS011;51008;51.504;11.548;2024-03-08T05:19:55;51.25;;;23.42;;
64598;SDS011;51008;51.504;11.548;2024-03-08T05:24:56;52.15;;;24.08;;
64598;SDS011;51008;51.504;11.548;2024-03-08T05:29:57;47.65;;;22.05;;
64598;SDS011;51008;51.504;11.548;2024-03-08T05:34:58;46.40;;;22.08;;
64598;SDS011;51008;51.504;11.548;2024-03-08T05:39:59;49.47;;;23.63;;
64598;SDS011;51008;51.504;11.548;2024-03-08T05:45:00;58.45;;;24.98;;
64598;SDS011;51008;51.504;11.548;2024-03-08T05:50:01;52.70;;;22.67;;
64598;SDS011;51008;51.504;11.548;2024-03-08T05:55:02;51.47;;;22.60;;
64598;SDS011;51008;51.504;11.548;2024-03-08T06:00:04;52.45;;;24.60;;
64598;SDS011;51008;51.504;11.548;2024-03-08T06:05:13;54.05;;;23.05;;
64598;SDS011;51008;51.504;11.548;2024-03-08T06:10:14;46.55;;;22.83;;
64598;SDS011;51008;51.504;11.548;2024-03-08T06:15:15;57.72;;;24.92;;
64598;SDS011;51008;51.504;11.548;2024-03-08T06:20:16;52.88;;;22.40;;
64598;SDS011;51008;51.504;11.548;2024-03-08T06:25:17;50.20;;;23.58;;
64598;SDS011;51008;51.504;11.548;2024-03-08T06:30:18;54.85;;;24.30;;
64598;SDS011;51008;51.504;11.548;2024-03-08T06:35:19;55.17;;;24.17;;
64598;SDS011;51008;51.504;11.548;2024-03-08T06:40:20;56.33;;;23.65;;
64598;SDS011;51008;51.504;11.548;2024-03-08T06:45:21;55.00;;;23.83;;
64598;SDS011;51008;51.504;11.548;2024-03-08T06:50:22;61.97;;;26.25;;
64598;SDS011;51008;51.504;11.548;2024-03-08T06:55:23;66.90;;;28.17;;
64598;SDS011;51008;51.504;11.548;2024-03-08T07:00:24;63.42;;;28.55;;
64598;SDS011;51008;51.504;11.548;2024-03-08T07:05:25;60.47;;;26.42;;
64598;SDS011;51008;51.504;11.548;2024-03-08T07:10:26;57.78;;;26.63;;
64598;SDS011;51008;51.504;11.548;2024-03-08T07:15:27;57.58;;;27.73;;
64598;SDS011;51008;51.504;11.548;2024-03-08T07:20:28;60.95;;;28.30;;
64598;SDS011;51008;51.504;11.548;2024-03-08T07:25:29;54.67;;;25.90;;
64598;SDS011;51008;51.504;11.548;2024-03-08T07:30:30;54.83;;;26.65;;
64598;SDS011;51008;51.504;11.548;2024-03-08T07:35:31;52.92;;;26.02;;
64598;SDS011;51008;51.504;11.548;2024-03-08T07:40:35;52.35;;;25.25;;
64598;SDS011;51008;51.504;11.548;2024-03-08T07:45:37;55.78;;;26.42;;
64598;SDS011;51008;51.504;11.548;2024-03-08T07:50:40;50.38;;;25.85;;
64598;SDS011;51008;51.504;11.548;2024-03-08T07:55:41;48.25;;;24.10;;
64598;SDS011;51008;51.504;11.548;2024-03-08T08:00:42;54.00;;;25.77;;
64598;SDS011;51008;51.504;11.548;2024-03-08T08:05:43;48.33;;;25.60;;
64598;SDS011;51008;51.504;11.548;2024-03-08T08:10:44;49.42;;;25.45;;
64598;SDS011;51008;51.504;11.548;2024-03-08T08:15:45;51.58;;;25.10;;
64598;SDS011;51008;51.504;11.548;2024-03-08T08:20:46;53.10;;;26.13;;
64598;SDS011;51008;51.504;11.548;2024-03-08T08:25:47;48.28;;;26.30;;
64598;SDS011;51008;51.504;11.548;2024-03-08T08:30:48;51.60;;;25.80;;
64598;SDS011;51008;51.504;11.548;2024-03-08T08:35:49;53.55;;;26.95;;
64598;SDS011;51008;51.504;11.548;2024-03-08T08:40:50;50.15;;;25.08;;
64598;SDS011;51008;51.504;11.548;2024-03-08T08:45:51;50.35;;;26.23;;
64598;SDS011;51008;51.504;11.548;2024-03-08T08:50:52;57.38;;;26.27;;
64598;SDS011;51008;51.504;11.548;2024-03-08T08:55:53;56.85;;;27.08;;
64598;SDS011;51008;51.504;11.548;2024-03-08T09:00:54;51.40;;;24.67;;
64598;SDS011;51008;51.504;11.548;2024-03-08T09:05:55;48.65;;;24.77;;
64598;SDS011;51008;51.504;11.548;2024-03-08T09:10:56;55.20;;;26.85;;
64598;SDS011;51008;51.504;11.548;2024-03-08T09:16:00;57.15;;;26.80;;
64598;SDS011;51008;51.504;11.548;2024-03-08T09:21:02;53.10;;;26.13;;
64598;SDS011;51008;51.504;11.548;2024-03-08T09:26:03;56.90;;;27.50;;
64598;SDS011;51008;51.504;11.548;2024-03-08T09:31:04;54.35;;;26.85;;
64598;SDS011;51008;51.504;11.548;2024-03-08T09:36:08;49.83;;;25.13;;
64598;SDS011;51008;51.504;11.548;2024-03-08T09:41:09;55.30;;;28.33;;
64598;SDS011;51008;51.504;11.548;2024-03-08T09:46:10;51.63;;;27.70;;
64598;SDS011;51008;51.504;11.548;2024-03-08T09:51:12;54.70;;;26.30;;
64598;SDS011;51008;51.504;11.548;2024-03-08T09:56:13;50.60;;;27.92;;
64598;SDS011;51008;51.504;11.548;2024-03-08T10:01:14;58.10;;;27.48;;
64598;SDS011;51008;51.504;11.548;2024-03-08T10:06:15;55.05;;;27.70;;
64598;SDS011;51008;51.504;11.548;2024-03-08T10:11:17;56.25;;;27.95;;
64598;SDS011;51008;51.504;11.548;2024-03-08T10:16:18;57.38;;;27.05;;
64598;SDS011;51008;51.504;11.548;2024-03-08T10:21:20;53.40;;;26.58;;
64598;SDS011;51008;51.504;11.548;2024-03-08T10:26:21;57.67;;;27.90;;
64598;SDS011;51008;51.504;11.548;2024-03-08T10:31:22;57.55;;;28.35;;
64598;SDS011;51008;51.504;11.548;2024-03-08T10:36:23;56.00;;;26.60;;
64598;SDS011;51008;51.504;11.548;2024-03-08T10:41:24;61.35;;;29.38;;
64598;SDS011;51008;51.504;11.548;2024-03-08T10:52:07;57.70;;;27.63;;
64598;SDS011;51008;51.504;11.548;2024-03-08T10:57:12;48.00;;;24.60;;
64598;SDS011;51008;51.504;11.548;2024-03-08T11:02:15;51.05;;;26.25;;
64598;SDS011;51008;51.504;11.548;2024-03-08T11:07:17;55.00;;;26.67;;
64598;SDS011;51008;51.504;11.548;2024-03-08T11:17:39;55.95;;;25.40;;
64598;SDS011;51008;51.504;11.548;2024-03-08T11:22:52;58.15;;;27.20;;
64598;SDS011;51008;51.504;11.548;2024-03-08T11:38:12;53.55;;;26.00;;
64598;SDS011;51008;51.504;11.548;2024-03-08T11:43:14;49.78;;;23.90;;
64598;SDS011;51008;51.504;11.548;2024-03-08T11:48:15;49.17;;;24.65;;
64598;SDS011;51008;51.504;11.548;2024-03-08T11:53:16;50.78;;;25.10;;
64598;SDS011;51008;51.504;11.548;2024-03-08T11:58:17;48.70;;;25.63;;
64598;SDS011;51008;51.504;11.548;2024-03-08T12:03:18;48.63;;;23.67;;
64598;SDS011;51008;51.504;11.548;2024-03-08T12:08:19;52.83;;;24.88;;
64598;SDS011;51008;51.504;11.548;2024-03-08T12:13:20;50.92;;;25.48;;
64598;SDS011;51008;51.504;11.548;2024-03-08T12:18:21;57.00;;;26.63;;
64598;SDS011;51008;51.504;11.548;2024-03-08T12:23:22;56.50;;;25.92;;
64598;SDS011;51008;51.504;11.548;2024-03-08T12:28:24;53.13;;;24.85;;
64598;SDS011;51008;51.504;11.548;2024-03-08T12:33:26;45.25;;;23.73;;
64598;SDS011;51008;51.504;11.548;2024-03-08T12:38:28;48.85;;;23.58;;
64598;SDS011;51008;51.504;11.548;2024-03-08T12:43:29;49.65;;;24.20;;
64598;SDS011;51008;51.504;11.548;2024-03-08T12:48:33;44.28;;;22.52;;
64598;SDS011;51008;51.504;11.548;2024-03-08T12:53:35;43.20;;;22.35;;
64598;SDS011;51008;51.504;11.548;2024-03-08T12:58:36;48.58;;;24.80;;
64598;SDS011;51008;51.504;11.548;2024-03-08T13:03:38;45.10;;;22.10;;
64598;SDS011;51008;51.504;11.548;2024-03-08T13:08:39;45.78;;;23.95;;
64598;SDS011;51008;51.504;11.548;2024-03-08T13:13:41;51.67;;;24.60;;
64598;SDS011;51008;51.504;11.548;2024-03-08T13:18:42;49.00;;;24.50;;
64598;SDS011;51008;51.504;11.548;2024-03-08T13:23:43;49.33;;;24.77;;
64598;SDS011;51008;51.504;11.548;2024-03-08T13:28:45;46.38;;;23.40;;
64598;SDS011;51008;51.504;11.548;2024-03-08T13:33:46;47.10;;;23.40;;
64598;SDS011;51008;51.504;11.548;2024-03-08T13:38:48;52.78;;;24.48;;
64598;SDS011;51008;51.504;11.548;2024-03-08T13:43:49;47.30;;;23.30;;
64598;SDS011;51008;51.504;11.548;2024-03-08T13:48:50;45.13;;;23.88;;
64598;SDS011;51008;51.504;11.548;2024-03-08T13:53:52;44.13;;;24.15;;
64598;SDS011;51008;51.504;11.548;2024-03-08T13:58:53;51.90;;;23.52;;
64598;SDS011;51008;51.504;11.548;2024-03-08T14:03:54;48.80;;;25.40;;
64598;SDS011;51008;51.504;11.548;2024-03-08T14:08:55;49.13;;;24.58;;
64598;SDS011;51008;51.504;11.548;2024-03-08T14:13:56;51.88;;;25.15;;
64598;SDS011;51008;51.504;11.548;2024-03-08T14:18:57;52.50;;;26.92;;
64598;SDS011;51008;51.504;11.548;2024-03-08T14:23:58;49.38;;;25.98;;
64598;SDS011;51008;51.504;11.548;2024-03-08T14:28:59;50.85;;;26.92;;
64598;SDS011;51008;51.504;11.548;2024-03-08T14:34:02;56.05;;;27.73;;
64598;SDS011;51008;51.504;11.548;2024-03-08T14:39:03;56.03;;;27.42;;
64598;SDS011;51008;51.504;11.548;2024-03-08T14:44:04;57.97;;;28.00;;
64598;SDS011;51008;51.504;11.548;2024-03-08T14:49:05;53.58;;;26.65;;
64598;SDS011;51008;51.504;11.548;2024-03-08T14:54:06;51.92;;;25.52;;
64598;SDS011;51008;51.504;11.548;2024-03-08T14:59:07;51.25;;;26.17;;
64598;SDS011;51008;51.504;11.548;2024-03-08T15:04:11;54.30;;;26.10;;
64598;SDS011;51008;51.504;11.548;2024-03-08T15:09:12;50.40;;;25.55;;
64598;SDS011;51008;51.504;11.548;2024-03-08T15:14:13;54.70;;;25.50;;
64598;SDS011;51008;51.504;11.548;2024-03-08T15:19:14;56.00;;;26.40;;
64598;SDS011;51008;51.504;11.548;2024-03-08T15:24:15;44.00;;;23.13;;
64598;SDS011;51008;51.504;11.548;2024-03-08T15:29:16;50.92;;;25.17;;
64598;SDS011;51008;51.504;11.548;2024-03-08T15:34:17;52.75;;;25.95;;
64598;SDS011;51008;51.504;11.548;2024-03-08T15:39:18;53.83;;;24.05;;
64598;SDS011;51008;51.504;11.548;2024-03-08T15:44:19;45.13;;;22.95;;
64598;SDS011;51008;51.504;11.548;2024-03-08T15:49:20;48.03;;;23.58;;
64598;SDS011;51008;51.504;11.548;2024-03-08T15:54:21;46.70;;;23.20;;
64598;SDS011;51008;51.504;11.548;2024-03-08T15:59:22;50.08;;;23.88;;
64598;SDS011;51008;51.504;11.548;2024-03-08T16:04:23;48.05;;;24.02;;
64598;SDS011;51008;51.504;11.548;2024-03-08T16:09:25;52.33;;;25.40;;
64598;SDS011;51008;51.504;11.548;2024-03-08T16:14:25;51.50;;;23.95;;
64598;SDS011;51008;51.504;11.548;2024-03-08T16:19:26;50.58;;;23.90;;
64598;SDS011;51008;51.504;11.548;2024-03-08T16:24:27;43.58;;;22.77;;
64598;SDS011;51008;51.504;11.548;2024-03-08T16:29:28;45.60;;;23.33;;
64598;SDS011;51008;51.504;11.548;2024-03-08T16:34:29;47.08;;;22.60;;
64598;SDS011;51008;51.504;11.548;2024-03-08T16:39:30;48.95;;;23.40;;
64598;SDS011;51008;51.504;11.548;2024-03-08T16:44:31;43.03;;;21.58;;
64598;SDS011;51008;51.504;11.548;2024-03-08T16:49:32;52.95;;;22.13;;
64598;SDS011;51008;51.504;11.548;2024-03-08T16:54:33;44.55;;;22.25;;
64598;SDS011;51008;51.504;11.548;2024-03-08T16:59:35;47.20;;;21.65;;
64598;SDS011;51008;51.504;11.548;2024-03-08T17:04:36;43.05;;;21.63;;
64598;SDS011;51008;51.504;11.548;2024-03-08T17:09:37;42.75;;;20.63;;
64598;SDS011;51008;51.504;11.548;2024-03-08T17:14:39;47.63;;;20.85;;
64598;SDS011;51008;51.504;11.548;2024-03-08T17:19:40;42.90;;;20.83;;
64598;SDS011;51008;51.504;11.548;2024-03-08T17:24:41;43.58;;;21.02;;
64598;SDS011;51008;51.504;11.548;2024-03-08T17:29:42;41.47;;;19.95;;
64598;SDS011;51008;51.504;11.548;2024-03-08T17:35:01;42.05;;;21.00;;
64598;SDS011;51008;51.504;11.548;2024-03-08T17:40:02;47.03;;;22.00;;
64598;SDS011;51008;51.504;11.548;2024-03-08T17:45:04;48.58;;;19.08;;
64598;SDS011;51008;51.504;11.548;2024-03-08T17:50:05;37.60;;;18.35;;
64598;SDS011;51008;51.504;11.548;2024-03-08T17:55:07;40.22;;;19.48;;
64598;SDS011;51008;51.504;11.548;2024-03-08T18:00:10;38.97;;;17.98;;
64598;SDS011;51008;51.504;11.548;2024-03-08T18:05:12;37.38;;;18.50;;
64598;SDS011;51008;51.504;11.548;2024-03-08T18:10:13;36.72;;;17.40;;
64598;SDS011;51008;51.504;11.548;2024-03-08T18:15:14;36.63;;;17.77;;
64598;SDS011;51008;51.504;11.548;2024-03-08T18:20:16;33.88;;;17.35;;
64598;SDS011;51008;51.504;11.548;2024-03-08T18:25:18;35.28;;;17.33;;
64598;SDS011;51008;51.504;11.548;2024-03-08T18:30:19;36.78;;;17.20;;
64598;SDS011;51008;51.504;11.548;2024-03-08T18:35:20;32.53;;;15.45;;
64598;SDS011;51008;51.504;11.548;2024-03-08T18:40:22;35.13;;;17.23;;
64598;SDS011;51008;51.504;11.548;2024-03-08T18:45:23;32.10;;;16.05;;
64598;SDS011;51008;51.504;11.548;2024-03-08T18:50:25;31.95;;;15.25;;
64598;SDS011;51008;51.504;11.548;2024-03-08T18:55:26;38.10;;;16.80;;
64598;SDS011;51008;51.504;11.548;2024-03-08T19:00:27;42.60;;;16.95;;
64598;SDS011;51008;51.504;11.548;2024-03-08T19:05:28;37.33;;;17.77;;
64598;SDS011;51008;51.504;11.548;2024-03-08T19:10:29;36.00;;;17.90;;
64598;SDS011;51008;51.504;11.548;2024-03-08T19:15:31;33.20;;;17.27;;
64598;SDS011;51008;51.504;11.548;2024-03-08T19:20:32;31.73;;;16.23;;
64598;SDS011;51008;51.504;11.548;2024-03-08T19:25:33;39.97;;;17.52;;
64598;SDS011;51008;51.504;11.548;2024-03-08T19:30:35;35.50;;;17.67;;
64598;SDS011;51008;51.504;11.548;2024-03-08T19:35:36;43.40;;;19.27;;
64598;SDS011;51008;51.504;11.548;2024-03-08T19:40:38;37.75;;;19.58;;
64598;SDS011;51008;51.504;11.548;2024-03-08T19:45:39;35.90;;;17.75;;
64598;SDS011;51008;51.504;11.548;2024-03-08T19:50:40;38.50;;;19.38;;
64598;SDS011;51008;51.504;11.548;2024-03-08T19:55:41;38.55;;;19.05;;
64598;SDS011;51008;51.504;11.548;2024-03-08T20:00:43;43.47;;;20.23;;
64598;SDS011;51008;51.504;11.548;2024-03-08T20:05:44;44.97;;;20.80;;
64598;SDS011;51008;51.504;11.548;2024-03-08T20:10:45;48.55;;;21.25;;
64598;SDS011;51008;51.504;11.548;2024-03-08T20:15:46;45.05;;;21.42;;
64598;SDS011;51008;51.504;11.548;2024-03-08T20:20:47;49.42;;;21.40;;
64598;SDS011;51008;51.504;11.548;2024-03-08T20:25:48;50.45;;;22.60;;
64598;SDS011;51008;51.504;11.548;2024-03-08T20:30:49;51.00;;;24.02;;
64598;SDS011;51008;51.504;11.548;2024-03-08T20:35:50;55.40;;;23.92;;
64598;SDS011;51008;51.504;11.548;2024-03-08T20:40:51;62.15;;;24.70;;
64598;SDS011;51008;51.504;11.548;2024-03-08T20:45:52;52.22;;;23.48;;
64598;SDS011;51008;51.504;11.548;2024-03-08T20:50:54;55.80;;;25.85;;
64598;SDS011;51008;51.504;11.548;2024-03-08T20:55:55;60.78;;;26.50;;
64598;SDS011;51008;51.504;11.548;2024-03-08T21:00:56;54.65;;;25.48;;
64598;SDS011;51008;51.504;11.548;2024-03-08T21:05:57;57.30;;;25.95;;
64598;SDS011;51008;51.504;11.548;2024-03-08T21:10:58;55.80;;;26.30;;
64598;SDS011;51008;51.504;11.548;2024-03-08T21:15:59;60.10;;;27.20;;
64598;SDS011;51008;51.504;11.548;2024-03-08T21:21:00;63.60;;;26.17;;
64598;SDS011;51008;51.504;11.548;2024-03-08T21:26:01;67.57;;;27.95;;
64598;SDS011;51008;51.504;11.548;2024-03-08T21:31:21;67.75;;;28.77;;
64598;SDS011;51008;51.504;11.548;2024-03-08T21:36:22;66.07;;;28.85;;
64598;SDS011;51008;51.504;11.548;2024-03-08T21:41:23;64.25;;;29.77;;
64598;SDS011;51008;51.504;11.548;2024-03-08T21:46:24;80.55;;;34.13;;
64598;SDS011;51008;51.504;11.548;2024-03-08T21:51:25;74.38;;;31.60;;
64598;SDS011;51008;51.504;11.548;2024-03-08T21:56:26;78.10;;;33.78;;
64598;SDS011;51008;51.504;11.548;2024-03-08T22:01:28;79.68;;;34.83;;
64598;SDS011;51008;51.504;11.548;2024-03-08T22:06:29;79.80;;;33.95;;
64598;SDS011;51008;51.504;11.548;2024-03-08T22:11:30;85.18;;;35.88;;
64598;SDS011;51008;51.504;11.548;2024-03-08T22:16:31;88.85;;;37.75;;
64598;SDS011;51008;51.504;11.548;2024-03-08T22:21:33;90.57;;;39.05;;
64598;SDS011;51008;51.504;11.548;2024-03-08T22:26:34;93.53;;;39.75;;
64598;SDS011;51008;51.504;11.548;2024-03-08T22:31:35;82.75;;;35.05;;
64598;SDS011;51008;51.504;11.548;2024-03-08T22:36:37;89.25;;;37.30;;
64598;SDS011;51008;51.504;11.548;2024-03-08T22:41:38;85.35;;;37.15;;
64598;SDS011;51008;51.504;11.548;2024-03-08T22:46:39;95.85;;;38.53;;
64598;SDS011;51008;51.504;11.548;2024-03-08T22:51:40;100.32;;;38.15;;
64598;SDS011;51008;51.504;11.548;2024-03-08T22:56:42;101.78;;;39.50;;
64598;SDS011;51008;51.504;11.548;2024-03-08T23:01:43;98.30;;;37.25;;
64598;SDS011;51008;51.504;11.548;2024-03-08T23:06:44;96.97;;;38.80;;
64598;SDS011;51008;51.504;11.548;2024-03-08T23:11:45;104.38;;;40.25;;
64598;SDS011;51008;51.504;11.548;2024-03-08T23:16:46;101.78;;;38.78;;
64598;SDS011;51008;51.504;11.548;2024-03-08T23:21:47;103.25;;;41.28;;
64598;SDS011;51008;51.504;11.548;2024-03-08T23:26:47;104.65;;;38.83;;
64598;SDS011;51008;51.504;11.548;2024-03-08T23:31:48;94.07;;;38.50;;
64598;SDS011;51008;51.504;11.548;2024-03-08T23:36:50;96.78;;;38.97;;
64598;SDS011;51008;51.504;11.548;2024-03-08T23:41:51;96.90;;;40.22;;
64598;SDS011;51008;51.504;11.548;2024-03-08T23:46:52;102.13;;;40.13;;
64598;SDS011;51008;51.504;11.548;2024-03-08T23:51:53;105.45;;;39.88;;
64598;SDS011;51008;51.504;11.548;2024-03-08T23:56:54;99.40;;;38.67;;
